Terminal Aerodrome Forecast
Issued by NWS Tallahassee, FL

Current Version | Previous Version | Text Only | Print | Product List | Glossary On
Versions: 1 2 3 4 5 6 7 8 9 10 11 12 13
546
FTUS42 KTAE 262320
TAFTLH
TAF
KTLH 262320Z 2700/2724 VRB03KT P6SM SCT040 BKN250
      TEMPO 2711/2713 4SM BR FEW010=

USA.gov is the U.S. government's official web portal to all federal, state and local government web resources and services.